Time;durP1;ratioP1;P1;durP2;ratioP2;P2;SDS_P1;SDS_P2;PMS_P1;PMS_P2;Temp;Humidity;BMP_temperature;BMP_pressure;BME280_temperature;BME280_humidity;BME280_pressure;Samples;Min_cycle;Max_cycle;Signal;HPM_P1;HPM_P2
2022/03/12 00:01:14;;;;;;;12.87;10.87;;;;;;;-1.83;50.58;95754.78;5044309;28;20303;-67
2022/03/12 00:03:40;;;;;;;11.73;10.43;;;;;;;-1.85;50.67;95759.13;5045239;28;20284;-64
2022/03/12 00:06:07;;;;;;;14.07;11.83;;;;;;;-1.64;50.62;95754.06;5044567;28;20252;-67
2022/03/12 00:11:16;;;;;;;19.60;13.77;;;;;;;-1.86;54.00;95761.78;5062583;28;20224;-66
2022/03/12 00:13:42;;;;;;;20.33;14.70;;;;;;;-1.83;54.80;95767.66;5045555;28;20223;-66
2022/03/12 00:16:13;;;;;;;19.43;15.03;;;;;;;-1.89;57.16;95765.31;5061694;28;20271;-66
2022/03/12 00:18:40;;;;;;;16.53;14.73;;;;;;;-1.96;58.43;95773.34;5044084;28;20233;-64
2022/03/12 00:21:08;;;;;;;20.07;14.03;;;;;;;-1.92;59.74;95773.19;5042625;28;20244;-65
2022/03/12 00:23:34;;;;;;;18.27;13.67;;;;;;;-1.93;60.32;95768.91;5046607;28;20236;-65
2022/03/12 00:26:01;;;;;;;15.20;12.87;;;;;;;-2.05;61.29;95770.22;5045435;28;20208;-65
2022/03/12 00:28:27;;;;;;;13.53;11.63;;;;;;;-2.03;61.74;95771.00;5045296;28;20205;-66
2022/03/12 00:30:53;;;;;;;14.30;11.70;;;;;;;-2.12;61.86;95770.50;5046538;28;20239;-66
2022/03/12 00:33:21;;;;;;;14.67;12.33;;;;;;;-2.23;62.66;95768.31;5043252;28;20236;-65
2022/03/12 00:35:51;;;;;;;16.23;13.27;;;;;;;-2.17;62.78;95773.25;5047413;28;20225;-65
2022/03/12 00:38:17;;;;;;;19.93;14.30;;;;;;;-2.25;63.89;95775.25;5060886;28;20224;-65
2022/03/12 00:40:43;;;;;;;18.47;14.37;;;;;;;-2.28;63.85;95777.94;5046386;28;20213;-66
2022/03/12 00:43:09;;;;;;;16.87;14.13;;;;;;;-2.32;64.51;95776.41;5045143;28;20258;-66
2022/03/12 00:45:36;;;;;;;17.80;14.97;;;;;;;-2.38;64.71;95777.44;5060187;28;20253;-64
2022/03/12 00:48:01;;;;;;;17.60;15.17;;;;;;;-2.41;64.86;95769.81;5061727;28;20213;-66
2022/03/12 00:50:27;;;;;;;17.93;14.70;;;;;;;-2.41;65.00;95772.38;5050798;28;20275;-66
2022/03/12 00:52:53;;;;;;;17.03;14.13;;;;;;;-2.39;65.20;95769.78;5049596;28;20318;-66
2022/03/12 00:55:18;;;;;;;19.00;14.63;;;;;;;-2.41;65.76;95763.84;5050510;28;20213;-67
2022/03/12 00:57:44;;;;;;;18.33;14.50;;;;;;;-2.54;65.90;95768.56;5048535;28;20225;-65
2022/03/12 01:00:21;;;;;;;16.63;14.63;;;;;;;-2.51;65.83;95771.06;5048322;28;20231;-65
2022/03/12 01:02:47;;;;;;;18.00;14.50;;;;;;;-2.60;66.05;95773.94;5045479;28;20228;-66
2022/03/12 01:05:19;;;;;;;17.83;13.80;;;;;;;-2.64;66.51;95778.38;5046223;28;20278;-67
2022/03/12 01:07:45;;;;;;;20.60;15.97;;;;;;;-2.62;67.25;95778.31;5045952;28;20241;-65
2022/03/12 01:10:11;;;;;;;17.20;14.80;;;;;;;-2.58;67.25;95777.31;5050920;28;20224;-66
2022/03/12 01:12:37;;;;;;;17.37;14.23;;;;;;;-2.72;68.15;95775.22;5047703;28;20224;-65
2022/03/12 01:15:04;;;;;;;15.90;13.00;;;;;;;-2.56;68.34;95778.09;5048155;28;20255;-65
2022/03/12 01:17:32;;;;;;;15.70;12.60;;;;;;;-2.50;67.98;95778.72;5044932;28;20229;-66
2022/03/12 01:19:58;;;;;;;13.43;11.90;;;;;;;-2.50;67.22;95773.56;5045122;28;20211;-66
2022/03/12 01:22:26;;;;;;;13.67;12.00;;;;;;;-2.57;67.16;95784.13;5045673;28;20193;-67
2022/03/12 01:24:51;;;;;;;15.03;12.67;;;;;;;-2.55;67.86;95783.19;5049696;28;20601;-67
2022/03/12 01:27:17;;;;;;;14.00;12.43;;;;;;;-2.64;67.63;95785.25;5064899;28;20343;-66
2022/03/12 01:29:43;;;;;;;13.60;12.10;;;;;;;-2.64;68.17;95783.53;5047580;28;20224;-67
2022/03/12 01:32:09;;;;;;;13.90;11.70;;;;;;;-2.60;68.44;95779.09;5046351;28;20240;-66
2022/03/12 01:34:35;;;;;;;12.53;10.87;;;;;;;-2.69;68.33;95785.41;5046080;28;20228;-65
2022/03/12 01:37:01;;;;;;;9.87;8.87;;;;;;;-2.74;67.84;95784.72;5045418;28;20235;-66
2022/03/12 01:39:27;;;;;;;10.63;8.70;;;;;;;-2.67;67.05;95791.34;5045336;28;20228;-66
2022/03/12 01:41:57;;;;;;;11.30;8.60;;;;;;;-2.68;66.86;95787.91;5048350;28;20331;-67
2022/03/12 01:44:23;;;;;;;9.47;8.43;;;;;;;-2.82;67.19;95784.16;5050018;28;20327;-65
2022/03/12 01:46:49;;;;;;;9.60;8.33;;;;;;;-2.78;67.24;95786.56;5048558;28;20296;-66
2022/03/12 01:49:23;;;;;;;10.70;8.57;;;;;;;-2.79;67.30;95784.88;5048548;28;20219;-66
2022/03/12 01:51:52;;;;;;;9.87;8.23;;;;;;;-2.81;67.92;95781.50;5041455;28;20229;-67
2022/03/12 01:54:23;;;;;;;9.43;8.43;;;;;;;-2.74;67.09;95777.00;5040984;28;20356;-66
2022/03/12 01:56:53;;;;;;;10.53;8.07;;;;;;;-2.72;67.33;95781.22;5041831;28;20229;-66
2022/03/12 01:59:19;;;;;;;10.73;7.63;;;;;;;-2.71;67.14;95770.00;5044197;28;20342;-66
2022/03/12 02:01:51;;;;;;;9.00;8.10;;;;;;;-2.82;66.85;95769.53;5048372;28;20208;-66
2022/03/12 02:04:17;;;;;;;8.47;7.50;;;;;;;-2.83;67.09;95767.00;5043815;28;20228;-66
2022/03/12 02:06:45;;;;;;;9.37;6.97;;;;;;;-2.72;66.62;95763.19;5038640;28;20221;-66
2022/03/12 02:09:15;;;;;;;8.53;7.10;;;;;;;-2.70;66.09;95752.81;5047550;28;20811;-66
2022/03/12 02:11:42;;;;;;;7.73;6.57;;;;;;;-2.68;66.04;95759.59;5053075;28;20307;-66
2022/03/12 02:14:09;;;;;;;8.03;6.70;;;;;;;-2.75;65.65;95759.88;5045773;28;20228;-66
2022/03/12 02:16:35;;;;;;;6.93;6.20;;;;;;;-2.77;65.54;95767.66;5064417;28;20268;-65
2022/03/12 02:19:01;;;;;;;7.70;6.30;;;;;;;-2.80;65.43;95775.47;5046962;28;20220;-66
2022/03/12 02:21:34;;;;;;;7.50;5.83;;;;;;;-2.88;64.85;95777.47;5047410;28;20216;-67
2022/03/12 02:24:02;;;;;;;7.67;6.87;;;;;;;-2.84;65.26;95775.63;5047118;28;20286;-66
2022/03/12 02:26:28;;;;;;;7.30;6.50;;;;;;;-2.80;64.61;95778.06;5044913;28;20259;-65
2022/03/12 02:28:53;;;;;;;6.77;6.03;;;;;;;-2.76;63.85;95769.31;5047873;28;20236;-66
2022/03/12 02:31:23;;;;;;;6.13;5.40;;;;;;;-2.84;64.43;95770.50;5048790;28;20254;-66
2022/03/12 02:33:48;;;;;;;7.83;6.17;;;;;;;-2.81;64.08;95776.34;5048155;28;20229;-67
2022/03/12 02:36:18;;;;;;;8.33;6.43;;;;;;;-2.72;62.87;95770.91;5067971;28;20220;-67
2022/03/12 02:38:47;;;;;;;7.37;5.87;;;;;;;-2.74;63.25;95771.84;5043684;28;20224;-66
2022/03/12 02:41:13;;;;;;;7.23;6.00;;;;;;;-2.75;62.27;95780.47;5040188;28;20220;-65
2022/03/12 02:43:43;;;;;;;6.37;5.77;;;;;;;-2.83;61.91;95777.31;5044063;28;20212;-68
2022/03/12 02:46:09;;;;;;;8.13;6.10;;;;;;;-2.78;61.97;95778.84;5042186;28;20224;-65
2022/03/12 02:48:35;;;;;;;8.40;6.50;;;;;;;-2.71;62.58;95785.44;5059128;28;20228;-65
2022/03/12 02:51:01;;;;;;;8.60;7.10;;;;;;;-2.76;62.53;95789.09;5047628;28;20282;-66
2022/03/12 02:53:26;;;;;;;7.87;6.87;;;;;;;-2.88;63.45;95791.19;5049229;28;20258;-66
2022/03/12 02:55:52;;;;;;;11.10;6.47;;;;;;;-2.97;63.88;95796.63;5044552;28;20212;-66
2022/03/12 02:58:18;;;;;;;7.77;6.47;;;;;;;-2.68;62.82;95793.06;5060786;28;20323;-66
2022/03/12 03:00:43;;;;;;;7.70;6.37;;;;;;;-2.76;62.90;95794.22;5042245;28;20229;-66
2022/03/12 03:03:09;;;;;;;8.03;6.33;;;;;;;-2.82;62.57;95795.28;5061453;28;20212;-67
2022/03/12 03:05:46;;;;;;;6.93;6.30;;;;;;;-2.92;62.99;95799.06;5045423;28;20252;-65
2022/03/12 03:08:18;;;;;;;7.07;6.37;;;;;;;-3.02;63.42;95807.97;5065957;28;20232;-65
2022/03/12 03:10:46;;;;;;;8.50;5.80;;;;;;;-2.87;63.32;95804.88;5049254;28;20204;-65
2022/03/12 03:13:17;;;;;;;6.47;5.53;;;;;;;-2.95;62.14;95812.03;5048922;28;20221;-66
2022/03/12 03:15:51;;;;;;;7.80;5.70;;;;;;;-2.96;61.29;95802.63;5049251;28;20233;-66
2022/03/12 03:18:21;;;;;;;8.87;5.20;;;;;;;-2.99;60.95;95802.75;5045705;28;20232;-66
2022/03/12 03:20:48;;;;;;;6.20;5.60;;;;;;;-3.00;60.45;95808.75;5046879;28;20258;-66
2022/03/12 03:23:14;;;;;;;6.20;4.93;;;;;;;-2.97;60.19;95811.22;5045622;28;20221;-66
2022/03/12 03:25:40;;;;;;;6.23;5.63;;;;;;;-3.05;60.85;95815.78;5047568;28;20201;-65
2022/03/12 03:28:07;;;;;;;6.33;5.70;;;;;;;-3.03;61.53;95821.72;5049285;28;20223;-66
2022/03/12 03:30:35;;;;;;;6.30;5.70;;;;;;;-2.93;61.60;95812.81;5048534;28;20323;-65
2022/03/12 03:33:07;;;;;;;7.23;6.00;;;;;;;-3.05;63.07;95814.06;5046316;28;20271;-67
2022/03/12 03:35:33;;;;;;;6.40;5.20;;;;;;;-3.14;62.52;95819.50;5046529;28;20221;-68
2022/03/12 03:37:59;;;;;;;6.97;5.90;;;;;;;-3.18;62.98;95818.78;5046859;28;20213;-68
2022/03/12 03:40:26;;;;;;;7.63;6.03;;;;;;;-3.08;63.29;95813.31;5047574;28;20213;-67
2022/03/12 03:42:53;;;;;;;7.33;5.83;;;;;;;-2.84;62.91;95819.38;5043802;28;20221;-67
2022/03/12 03:45:23;;;;;;;7.53;6.57;;;;;;;-2.75;61.88;95813.94;5045554;28;20243;-67
2022/03/12 03:47:52;;;;;;;7.07;6.30;;;;;;;-2.91;61.10;95813.63;5051714;28;20232;-66
2022/03/12 03:50:22;;;;;;;7.00;6.00;;;;;;;-2.96;61.44;95811.19;5046114;28;20229;-67
2022/03/12 03:52:47;;;;;;;7.53;6.13;;;;;;;-3.00;61.34;95827.59;5044361;28;20244;-67
2022/03/12 03:55:13;;;;;;;6.90;6.07;;;;;;;-2.97;60.07;95816.38;5047636;28;20211;-67
2022/03/12 03:57:38;;;;;;;6.63;5.60;;;;;;;-3.00;60.05;95819.06;5046686;28;20306;-67
2022/03/12 04:00:05;;;;;;;6.87;5.93;;;;;;;-3.07;60.37;95821.00;5050114;28;20235;-67
2022/03/12 04:02:30;;;;;;;7.33;5.80;;;;;;;-3.04;60.24;95815.75;5051433;28;20232;-67
2022/03/12 04:04:56;;;;;;;7.70;6.00;;;;;;;-3.03;60.50;95821.72;5047272;28;20207;-68
2022/03/12 04:07:21;;;;;;;6.80;5.73;;;;;;;-3.16;61.06;95827.25;5049681;28;20262;-66
2022/03/12 04:09:47;;;;;;;7.47;5.60;;;;;;;-3.28;61.43;95821.69;5047073;28;20229;-67
2022/03/12 04:12:13;;;;;;;7.00;6.17;;;;;;;-3.18;62.08;95821.34;5045731;28;20232;-67
2022/03/12 04:14:38;;;;;;;7.77;6.50;;;;;;;-3.16;61.48;95829.84;5044554;28;20228;-67
2022/03/12 04:17:05;;;;;;;7.47;6.10;;;;;;;-3.14;61.73;95832.38;5047418;28;20212;-67
2022/03/12 04:19:33;;;;;;;9.10;6.23;;;;;;;-3.14;61.46;95830.63;5049354;28;20205;-67
2022/03/12 04:21:58;;;;;;;8.50;6.00;;;;;;;-3.34;62.70;95826.13;5052245;28;20327;-67
2022/03/12 04:24:25;;;;;;;8.33;6.33;;;;;;;-3.24;62.77;95833.53;5050586;28;20319;-66
2022/03/12 04:26:51;;;;;;;8.30;6.53;;;;;;;-3.30;62.93;95833.75;5044994;28;20232;-66
2022/03/12 04:29:18;;;;;;;8.50;6.97;;;;;;;-3.31;62.21;95835.47;5046354;28;20255;-65
2022/03/12 04:31:46;;;;;;;7.90;6.53;;;;;;;-3.27;61.98;95842.19;5045801;28;20200;-66
2022/03/12 04:34:13;;;;;;;7.67;6.13;;;;;;;-3.35;62.92;95833.88;5047477;28;20228;-66
2022/03/12 04:36:41;;;;;;;8.37;6.47;;;;;;;-3.27;62.89;95842.19;5047845;28;20228;-67
2022/03/12 04:39:09;;;;;;;9.03;6.90;;;;;;;-3.19;62.46;95847.94;5049042;28;20318;-66
2022/03/12 04:41:36;;;;;;;8.47;6.53;;;;;;;-3.24;62.59;95844.66;5065646;28;20225;-66
2022/03/12 04:44:06;;;;;;;8.17;7.03;;;;;;;-3.14;63.20;95858.94;5061498;28;20192;-66
2022/03/12 04:46:32;;;;;;;8.43;7.00;;;;;;;-3.18;63.25;95859.06;5047331;28;20312;-67
2022/03/12 04:48:57;;;;;;;9.30;8.03;;;;;;;-3.26;64.12;95861.03;5046166;28;20320;-67
2022/03/12 04:51:23;;;;;;;8.37;7.20;;;;;;;-3.33;63.91;95865.53;5064672;28;20244;-66
2022/03/12 04:53:48;;;;;;;9.53;8.27;;;;;;;-3.34;64.49;95863.88;5048462;28;20229;-67
2022/03/12 04:56:14;;;;;;;9.50;8.50;;;;;;;-3.40;64.16;95854.59;5048386;28;20225;-67
2022/03/12 04:58:39;;;;;;;11.70;9.20;;;;;;;-3.46;64.50;95865.06;5066152;28;20200;-66
2022/03/12 05:01:07;;;;;;;11.77;8.43;;;;;;;-3.47;64.75;95867.72;5048870;28;20279;-66
2022/03/12 05:03:32;;;;;;;10.17;8.90;;;;;;;-3.48;64.45;95860.88;5047810;28;20237;-67
2022/03/12 05:06:02;;;;;;;12.00;9.97;;;;;;;-3.59;65.16;95874.03;5045609;28;20244;-66
2022/03/12 05:08:28;;;;;;;11.47;9.60;;;;;;;-3.63;65.29;95862.19;5044594;28;20237;-66
2022/03/12 05:10:56;;;;;;;11.60;9.60;;;;;;;-3.64;65.58;95873.34;5046067;28;20201;-67
2022/03/12 05:13:23;;;;;;;12.87;9.73;;;;;;;-3.54;65.21;95885.03;5045617;28;20220;-68
2022/03/12 05:15:53;;;;;;;11.10;9.90;;;;;;;-3.61;64.95;95881.81;5045468;28;20267;-67
2022/03/12 05:18:21;;;;;;;12.37;10.07;;;;;;;-3.70;65.29;95882.06;5029000;28;20324;-67
2022/03/12 05:20:47;;;;;;;12.30;10.57;;;;;;;-3.62;65.67;95889.56;5046840;28;20233;-66
2022/03/12 05:23:13;;;;;;;12.53;10.07;;;;;;;-3.71;65.62;95893.25;5050861;28;20220;-66
2022/03/12 05:25:41;;;;;;;15.07;10.50;;;;;;;-3.66;65.68;95893.09;5047420;28;20804;-66
2022/03/12 05:28:09;;;;;;;21.07;12.33;;;;;;;-3.57;65.65;95897.97;5048033;28;20311;-66
2022/03/12 05:30:35;;;;;;;19.80;13.03;;;;;;;-3.70;65.07;95899.22;5050451;28;20235;-66
2022/03/12 05:33:00;;;;;;;19.07;13.70;;;;;;;-3.75;65.66;95906.22;5046319;28;20220;-68
2022/03/12 05:35:26;;;;;;;15.90;13.03;;;;;;;-3.71;65.85;95906.09;5046141;28;20225;-67
2022/03/12 05:37:53;;;;;;;18.33;12.67;;;;;;;-3.67;65.39;95910.25;5042964;28;20236;-67
2022/03/12 05:40:26;;;;;;;18.80;13.10;;;;;;;-3.58;65.14;95911.72;5047076;28;20203;-67
2022/03/12 05:42:55;;;;;;;17.97;13.57;;;;;;;-3.58;65.37;95917.72;5042668;28;20224;-67
2022/03/12 05:45:23;;;;;;;18.43;13.60;;;;;;;-3.53;65.73;95920.13;5063691;28;20215;-68
2022/03/12 05:47:49;;;;;;;18.60;13.30;;;;;;;-3.44;65.60;95930.16;5049831;28;20310;-66
2022/03/12 05:50:16;;;;;;;18.30;13.20;;;;;;;-3.22;65.49;95934.66;5051064;28;20267;-67
2022/03/12 05:52:48;;;;;;;16.07;13.10;;;;;;;-3.24;64.87;95937.25;5044745;28;20205;-67
2022/03/12 05:55:16;;;;;;;15.33;12.03;;;;;;;-3.02;64.50;95936.63;5043952;28;20268;-66
2022/03/12 05:57:42;;;;;;;14.80;12.23;;;;;;;-2.88;64.06;95931.91;5051898;28;20235;-67
2022/03/12 06:00:11;;;;;;;16.00;12.90;;;;;;;-2.78;64.38;95941.03;5044519;28;20691;-66
2022/03/12 06:02:48;;;;;;;17.63;11.70;;;;;;;-2.71;64.39;95939.91;5049465;28;20231;-65
2022/03/12 06:05:14;;;;;;;14.23;11.87;;;;;;;-2.57;64.05;95941.19;5031266;28;20228;-66
2022/03/12 06:07:45;;;;;;;17.03;12.83;;;;;;;-2.47;63.84;95940.84;5049231;28;20204;-66
2022/03/12 06:10:16;;;;;;;15.73;12.80;;;;;;;-2.21;63.02;95952.03;5065615;28;20235;-66
2022/03/12 06:12:43;;;;;;;16.00;13.00;;;;;;;-2.21;62.26;95959.75;5060335;28;20233;-67
2022/03/12 06:15:14;;;;;;;16.03;11.97;;;;;;;-2.60;63.40;95956.75;5044215;28;20280;-66
2022/03/12 06:17:40;;;;;;;14.87;11.63;;;;;;;-2.24;62.40;95959.88;5061796;28;20220;-68
2022/03/12 06:20:12;;;;;;;15.03;11.17;;;;;;;-2.27;61.51;95960.81;5047578;28;20274;-67
2022/03/12 06:22:38;;;;;;;12.63;10.60;;;;;;;-2.30;61.38;95966.06;5047162;28;20286;-66
2022/03/12 06:25:06;;;;;;;13.47;10.80;;;;;;;-2.24;61.22;95965.84;5064189;28;20212;-67
2022/03/12 06:27:32;;;;;;;12.60;10.23;;;;;;;-2.29;60.52;95969.47;5047920;28;20310;-66
2022/03/12 06:29:58;;;;;;;10.07;8.80;;;;;;;-2.37;58.92;95967.16;5049932;28;20260;-68
2022/03/12 06:32:24;;;;;;;9.63;8.40;;;;;;;-2.39;57.29;95971.50;5046728;28;20248;-67
2022/03/12 06:34:49;;;;;;;10.80;8.17;;;;;;;-2.24;56.67;95967.59;5064538;28;20244;-67
2022/03/12 06:37:15;;;;;;;10.10;8.63;;;;;;;-2.37;56.44;95972.31;5043824;28;20243;-67
2022/03/12 06:39:41;;;;;;;9.73;8.37;;;;;;;-2.14;55.88;95973.25;5049348;28;20224;-68
2022/03/12 06:42:07;;;;;;;10.03;7.80;;;;;;;-2.06;54.21;95977.28;5040860;28;20271;-68
2022/03/12 06:44:33;;;;;;;10.07;7.77;;;;;;;-2.21;54.72;95988.09;5047743;28;20307;-67
2022/03/12 06:47:03;;;;;;;9.97;7.27;;;;;;;-2.30;53.38;95986.69;5043828;28;20208;-66
2022/03/12 06:49:29;;;;;;;7.37;6.53;;;;;;;-2.15;51.97;95981.91;5047160;28;20222;-68
2022/03/12 06:51:55;;;;;;;8.23;6.90;;;;;;;-2.30;53.48;95988.38;5048914;28;20228;-68
2022/03/12 06:54:22;;;;;;;7.83;7.03;;;;;;;-2.06;53.79;95984.16;5049037;28;20236;-66
2022/03/12 06:56:48;;;;;;;7.37;6.50;;;;;;;-1.96;53.00;95982.94;5053244;28;20217;-69
2022/03/12 06:59:13;;;;;;;8.40;7.60;;;;;;;-2.06;52.78;95989.31;5069513;28;20294;-65
2022/03/12 07:01:39;;;;;;;9.70;7.20;;;;;;;-1.95;52.93;95989.81;5050773;28;20213;-63
2022/03/12 07:04:06;;;;;;;8.23;7.13;;;;;;;-1.88;52.34;95990.44;5047221;28;20332;-64
2022/03/12 07:06:33;;;;;;;7.37;6.57;;;;;;;-1.88;52.09;95993.84;5063590;28;20216;-63
2022/03/12 07:09:00;;;;;;;7.00;6.30;;;;;;;-1.62;50.64;95992.09;5044815;28;20232;-63
2022/03/12 07:11:25;;;;;;;7.10;6.40;;;;;;;-1.71;51.18;95997.56;5065775;28;20220;-65
2022/03/12 07:13:51;;;;;;;8.17;6.83;;;;;;;-1.71;51.45;95993.28;5054379;28;20216;-63
2022/03/12 07:16:16;;;;;;;8.30;7.27;;;;;;;-1.70;50.60;96000.09;5051695;28;20217;-64
2022/03/12 07:18:42;;;;;;;9.80;7.60;;;;;;;-1.57;50.65;96005.69;5051544;28;20405;-66
2022/03/12 07:21:07;;;;;;;9.27;8.13;;;;;;;-1.48;51.17;96013.06;5044921;28;20333;-65
2022/03/12 07:23:34;;;;;;;9.40;8.40;;;;;;;-1.26;50.14;96014.88;5041191;28;20271;-66
2022/03/12 07:25:59;;;;;;;9.20;8.07;;;;;;;-1.12;49.33;96017.81;5042911;28;20231;-66
2022/03/12 07:28:25;;;;;;;11.83;9.73;;;;;;;-1.12;48.61;96022.97;5048280;28;20208;-67
2022/03/12 07:30:54;;;;;;;10.00;8.30;;;;;;;-0.87;48.76;96019.47;5063555;28;20221;-65
2022/03/12 07:33:19;;;;;;;7.93;7.13;;;;;;;-0.69;47.02;96029.13;5051473;28;20613;-63
2022/03/12 07:35:45;;;;;;;7.13;6.30;;;;;;;-0.57;46.61;96028.63;5049410;28;20224;-63
2022/03/12 07:38:11;;;;;;;9.60;6.97;;;;;;;-0.45;46.04;96035.91;5044878;28;20219;-64
2022/03/12 07:40:37;;;;;;;6.90;6.20;;;;;;;-0.37;45.43;96039.94;5048373;28;20215;-64
2022/03/12 07:43:03;;;;;;;8.43;6.17;;;;;;;-0.30;45.58;96039.63;5062320;28;20326;-65
2022/03/12 07:45:29;;;;;;;8.20;6.90;;;;;;;-0.33;44.11;96039.75;5047198;28;20297;-65
2022/03/12 07:47:55;;;;;;;7.13;6.30;;;;;;;-0.28;44.52;96034.41;5045930;28;20304;-65
2022/03/12 07:50:20;;;;;;;8.40;6.70;;;;;;;-0.22;44.02;96026.38;5046799;28;20213;-65
2022/03/12 07:52:46;;;;;;;8.10;6.00;;;;;;;-0.04;43.11;96036.00;5045431;28;20227;-66
2022/03/12 07:55:12;;;;;;;7.70;5.73;;;;;;;-0.10;43.03;96032.81;5039159;28;20220;-65
2022/03/12 07:57:40;;;;;;;7.27;5.33;;;;;;;-0.04;42.28;96036.00;5042506;28;20354;-65
2022/03/12 08:00:09;;;;;;;7.50;5.00;;;;;;;-0.13;42.02;96036.38;5043780;28;20235;-66
2022/03/12 08:02:35;;;;;;;6.17;5.40;;;;;;;-0.11;40.83;96033.72;5060375;28;20263;-66
2022/03/12 08:05:01;;;;;;;7.03;5.73;;;;;;;-0.02;42.51;96030.78;5046013;28;20200;-64
2022/03/12 08:07:28;;;;;;;6.97;5.37;;;;;;;0.03;42.12;96040.91;5046883;28;20295;-62
2022/03/12 08:09:56;;;;;;;6.03;5.00;;;;;;;-0.12;41.35;96038.03;5046300;28;20328;-64
2022/03/12 08:12:24;;;;;;;7.83;5.50;;;;;;;-0.13;40.87;96036.38;5043872;28;20216;-65
2022/03/12 08:14:50;;;;;;;7.93;5.20;;;;;;;0.05;41.24;96041.69;5041411;28;20231;-65
2022/03/12 08:17:17;;;;;;;5.97;5.37;;;;;;;0.19;40.26;96037.63;5045647;28;20251;-65
2022/03/12 08:19:43;;;;;;;5.67;5.10;;;;;;;0.18;40.36;96040.28;5064454;28;20201;-64
2022/03/12 08:22:09;;;;;;;8.53;5.30;;;;;;;0.11;38.97;96038.88;5051617;28;20231;-65
2022/03/12 08:24:34;;;;;;;8.90;6.20;;;;;;;0.14;40.71;96039.56;5050080;28;20219;-65
2022/03/12 08:26:59;;;;;;;7.23;5.60;;;;;;;0.01;39.67;96043.56;5047014;28;20233;-65
2022/03/12 08:29:25;;;;;;;8.10;6.17;;;;;;;-0.15;41.43;96043.34;5046109;28;20258;-65
2022/03/12 08:31:51;;;;;;;6.80;6.10;;;;;;;0.02;42.55;96042.66;5046001;28;20208;-64
2022/03/12 08:34:16;;;;;;;7.57;6.77;;;;;;;-0.02;41.84;96048.88;5046273;28;20236;-65
2022/03/12 08:36:45;;;;;;;7.50;6.27;;;;;;;-0.13;42.79;96044.13;5045168;28;20220;-65
2022/03/12 08:39:13;;;;;;;7.77;6.23;;;;;;;-0.27;43.46;96049.84;5046181;28;20232;-65
2022/03/12 08:41:39;;;;;;;7.13;6.20;;;;;;;-0.20;42.61;96045.28;5065750;28;20225;-65
2022/03/12 08:44:06;;;;;;;7.53;6.53;;;;;;;-0.32;43.82;96053.50;5045322;28;20201;-65
2022/03/12 08:46:32;;;;;;;7.07;6.30;;;;;;;-0.13;43.14;96053.63;5045767;28;20201;-65
2022/03/12 08:48:57;;;;;;;7.20;5.83;;;;;;;-0.32;42.27;96054.38;5048559;28;20232;-65
2022/03/12 08:51:23;;;;;;;6.40;5.80;;;;;;;-0.45;43.01;96051.41;5046740;28;20220;-65
2022/03/12 08:53:49;;;;;;;8.57;6.13;;;;;;;-0.44;42.21;96052.25;5046662;28;20290;-65
2022/03/12 08:56:14;;;;;;;6.83;6.10;;;;;;;-0.45;43.32;96054.00;5047622;28;20224;-65
2022/03/12 08:58:41;;;;;;;6.87;5.87;;;;;;;-0.71;43.84;96049.00;5062352;28;20200;-65
2022/03/12 09:01:08;;;;;;;9.30;6.57;;;;;;;-0.48;43.71;96051.53;5045925;28;20232;-65
2022/03/12 09:03:35;;;;;;;8.47;6.63;;;;;;;-0.38;43.14;96051.16;5041609;28;20217;-64
2022/03/12 09:06:02;;;;;;;7.53;6.53;;;;;;;-0.24;44.40;96051.47;5042871;28;20240;-65
2022/03/12 09:08:28;;;;;;;7.17;6.47;;;;;;;-0.01;43.74;96053.13;5043952;28;20240;-65
2022/03/12 09:10:55;;;;;;;9.07;6.43;;;;;;;0.28;42.27;96045.91;5060640;28;20259;-65
2022/03/12 09:13:21;;;;;;;7.70;6.90;;;;;;;0.31;41.67;96046.63;5045375;28;20234;-65
2022/03/12 09:15:47;;;;;;;9.00;6.63;;;;;;;0.66;42.95;96052.88;5051763;28;20228;-65
2022/03/12 09:18:13;;;;;;;8.00;7.20;;;;;;;0.96;42.39;96054.19;5050636;28;20227;-66
2022/03/12 09:20:45;;;;;;;10.90;7.23;;;;;;;1.13;42.88;96043.94;5046021;28;20229;-65
2022/03/12 09:23:12;;;;;;;9.10;7.03;;;;;;;1.46;42.94;96057.09;5044595;28;20225;-66
2022/03/12 09:25:38;;;;;;;9.33;7.73;;;;;;;1.35;40.50;96059.34;5064200;28;20274;-65
2022/03/12 09:28:04;;;;;;;8.73;7.23;;;;;;;1.38;41.90;96056.59;5048436;28;20224;-64
2022/03/12 09:30:29;;;;;;;7.30;6.37;;;;;;;1.05;40.09;96061.56;5045424;28;20298;-64
2022/03/12 09:32:55;;;;;;;8.43;6.70;;;;;;;0.83;40.30;96057.34;5047527;28;20236;-65
2022/03/12 09:35:20;;;;;;;6.20;5.50;;;;;;;-0.32;39.06;96061.25;5067131;28;20231;-65
2022/03/12 09:37:47;;;;;;;6.13;5.17;;;;;;;-0.24;40.32;96057.47;5047910;28;20217;-66
2022/03/12 09:40:16;;;;;;;5.53;5.03;;;;;;;-0.19;42.60;96062.44;5046015;28;20327;-66
2022/03/12 09:42:42;;;;;;;5.77;4.90;;;;;;;-0.03;43.12;96058.38;5045157;28;20255;-66
2022/03/12 09:45:09;;;;;;;7.37;5.80;;;;;;;-0.15;38.90;96052.84;5036035;28;20237;-66
2022/03/12 09:47:35;;;;;;;7.23;5.47;;;;;;;0.02;39.10;96049.56;5044689;28;20216;-66
2022/03/12 09:50:01;;;;;;;6.00;5.37;;;;;;;0.31;38.08;96043.19;5043378;28;20222;-65
2022/03/12 09:52:27;;;;;;;7.67;5.77;;;;;;;0.71;38.43;96039.75;5046229;28;20215;-66
2022/03/12 09:54:53;;;;;;;8.23;5.40;;;;;;;0.60;38.21;96041.97;5048516;28;20235;-66
2022/03/12 09:57:18;;;;;;;6.13;5.53;;;;;;;0.75;41.57;96049.06;5043603;28;20228;-66
2022/03/12 09:59:44;;;;;;;5.73;5.17;;;;;;;1.10;39.04;96042.31;5044210;28;20225;-66
2022/03/12 10:02:09;;;;;;;6.10;5.10;;;;;;;1.14;42.00;96048.19;5058690;28;20231;-65
2022/03/12 10:04:35;;;;;;;6.87;5.40;;;;;;;0.93;40.74;96052.56;5046343;28;20417;-65
2022/03/12 10:07:01;;;;;;;6.70;5.20;;;;;;;0.71;39.37;96049.25;5044882;28;20362;-66
2022/03/12 10:09:26;;;;;;;5.93;4.90;;;;;;;1.05;39.73;96043.44;5047995;28;20243;-65
2022/03/12 10:11:53;;;;;;;6.40;5.70;;;;;;;1.17;41.60;96042.88;5058143;28;20240;-66
2022/03/12 10:14:19;;;;;;;6.70;5.43;;;;;;;1.63;39.18;96045.94;5024612;28;20221;-66
2022/03/12 10:16:45;;;;;;;5.90;5.37;;;;;;;1.71;41.03;96054.22;5042292;28;20208;-64
2022/03/12 10:19:10;;;;;;;8.07;6.37;;;;;;;1.95;38.75;96047.00;5042596;28;20290;-65
2022/03/12 10:21:42;;;;;;;9.10;6.00;;;;;;;2.18;39.40;96052.81;5041787;28;20247;-64
2022/03/12 10:24:17;;;;;;;6.90;5.43;;;;;;;2.25;40.14;96049.00;5047710;28;20217;-64
2022/03/12 10:26:42;;;;;;;6.47;5.43;;;;;;;2.53;39.97;96042.44;5042360;28;20311;-63
2022/03/12 10:29:09;;;;;;;9.50;5.30;;;;;;;2.95;39.49;96036.78;5059697;28;20300;-63
2022/03/12 10:31:37;;;;;;;5.30;4.80;;;;;;;3.18;36.61;96024.31;5043641;28;20209;-64
2022/03/12 10:34:18;;;;;;;7.90;5.27;;;;;;;3.18;38.03;96029.53;5043381;28;20224;-64
2022/03/12 10:36:45;;;;;;;5.60;5.00;;;;;;;2.92;37.10;96036.94;5041539;28;20228;-65
2022/03/12 10:39:11;;;;;;;5.50;5.00;;;;;;;2.92;37.21;96039.56;5043588;28;20228;-64
2022/03/12 10:41:37;;;;;;;5.93;5.10;;;;;;;2.67;36.64;96037.38;5046443;28;20315;-66
2022/03/12 10:44:04;;;;;;;5.53;5.03;;;;;;;2.48;37.25;96036.63;5045217;28;20696;-64
2022/03/12 10:46:30;;;;;;;4.90;4.40;;;;;;;2.35;34.04;96039.00;5040341;28;20228;-62
2022/03/12 10:48:59;;;;;;;4.93;4.27;;;;;;;2.10;33.13;96034.19;5054917;28;20355;-63
2022/03/12 10:51:35;;;;;;;5.77;4.87;;;;;;;2.16;33.64;96031.28;5042334;28;20236;-64
2022/03/12 10:54:10;;;;;;;5.13;4.67;;;;;;;2.09;36.21;96033.34;5059981;28;20225;-64
2022/03/12 10:56:43;;;;;;;6.20;4.73;;;;;;;2.30;36.69;96026.28;5041309;28;20232;-63
2022/03/12 10:59:14;;;;;;;7.47;5.20;;;;;;;2.64;36.45;96025.38;5044047;28;20672;-68
2022/03/12 11:01:50;;;;;;;6.77;4.97;;;;;;;2.77;35.52;96022.16;5047371;28;20311;-64
2022/03/12 11:04:26;;;;;;;9.67;5.50;;;;;;;2.65;37.37;96021.88;5045234;28;20234;-64
2022/03/12 11:06:54;;;;;;;6.73;5.40;;;;;;;2.69;37.08;96021.72;5037410;28;20579;-65
2022/03/12 11:09:38;;;;;;;4.77;4.30;;;;;;;2.37;33.69;96017.25;5041596;28;20347;-66
2022/03/12 11:12:30;;;;;;;5.97;5.37;;;;;;;2.28;36.83;96011.69;5037911;28;20224;-66
2022/03/12 11:15:17;;;;;;;5.13;4.63;;;;;;;2.67;36.00;96013.16;5036522;28;20228;-65
2022/03/12 11:17:50;;;;;;;6.13;5.07;;;;;;;2.86;34.89;96014.75;5042768;28;20236;-65
2022/03/12 11:20:22;;;;;;;6.10;4.60;;;;;;;2.86;32.91;95993.97;5044476;28;20231;-65
2022/03/12 11:23:04;;;;;;;7.17;4.47;;;;;;;2.20;34.43;96006.88;5058789;28;20212;-64
2022/03/12 11:25:30;;;;;;;5.03;3.70;;;;;;;2.79;35.16;96002.16;5058326;28;20204;-65
2022/03/12 11:28:02;;;;;;;5.43;4.50;;;;;;;2.98;36.33;95984.66;5041224;28;20229;-64
2022/03/12 11:30:30;;;;;;;4.47;4.03;;;;;;;3.47;38.17;95989.78;5045804;28;20236;-66
2022/03/12 11:33:07;;;;;;;6.33;4.87;;;;;;;2.72;34.21;95991.22;5045769;28;20226;-63
2022/03/12 11:35:45;;;;;;;4.57;4.13;;;;;;;3.47;38.12;95984.59;5042985;28;20224;-63